createdAt,value
2017-10-18T00:00:43.121Z,97897.06
2017-10-18T00:06:06.111Z,97893.92
2017-10-18T00:08:43.529Z,97895.13
2017-10-18T00:11:22.393Z,97898.28
2017-10-18T00:17:14.637Z,97897.31
2017-10-18T00:19:42.456Z,97897.91
2017-10-18T00:22:11.332Z,97889.42
2017-10-18T00:24:42.508Z,97890.47
2017-10-18T00:27:12.506Z,97886.41
2017-10-18T00:30:14.379Z,97890.13
2017-10-18T00:34:22.767Z,97882.93
2017-10-18T00:40:07.431Z,97880.13
2017-10-18T00:42:35.029Z,97875.92
2017-10-18T00:47:37.334Z,97879.28
2017-10-18T00:50:05.992Z,97879.03
2017-10-18T00:52:39.040Z,97881.35
2017-10-18T00:55:06.653Z,97877.67
2017-10-18T00:57:34.538Z,97873.11
2017-10-18T01:00:06.850Z,97869.63
2017-10-18T01:02:36.547Z,97869.41
2017-10-18T01:05:05.287Z,97870.76
2017-10-18T01:07:41.867Z,97866.42
2017-10-18T01:10:09.623Z,97855.31
2017-10-18T01:12:48.074Z,97864.97
2017-10-18T01:21:06.335Z,97855.39
2017-10-18T01:23:37.601Z,97850.41
2017-10-18T01:26:05.720Z,97850.76
2017-10-18T01:28:33.596Z,97838.09
2017-10-18T01:31:01.838Z,97839.44
2017-10-18T01:33:30.096Z,97835.50
2017-10-18T01:35:57.836Z,97832.81
2017-10-18T01:38:29.126Z,97834.63
2017-10-18T01:41:04.267Z,97840.49
2017-10-18T01:46:13.358Z,97840.74
2017-10-18T01:53:53.588Z,97841.09
2017-10-18T01:56:29.344Z,97837.72
2017-10-18T01:58:59.718Z,97839.07
2017-10-18T02:01:28.359Z,97832.52
2017-10-18T02:03:59.856Z,97838.30
2017-10-18T02:06:27.778Z,97834.39
2017-10-18T02:08:56.262Z,97829.61
2017-10-18T02:11:39.907Z,97827.45
2017-10-18T02:14:09.004Z,97819.30
2017-10-18T02:16:36.762Z,97820.20
2017-10-18T03:32:02.919Z,97812.75
2017-10-18T03:34:32.353Z,97806.85
2017-10-18T03:39:40.526Z,97808.72
2017-10-18T03:42:09.883Z,97808.05
2017-10-18T03:44:49.901Z,97809.77
2017-10-18T03:49:56.754Z,97812.14
2017-10-18T03:52:26.712Z,97811.01
2017-10-18T03:54:54.410Z,97809.28
2017-10-18T03:57:22.587Z,97809.88
2017-10-18T03:59:51.204Z,97802.66
2017-10-18T04:05:19.498Z,97813.92
2017-10-18T04:07:49.893Z,97816.72
2017-10-18T04:10:17.690Z,97804.20
2017-10-18T04:12:45.865Z,97809.00
2017-10-18T04:15:13.746Z,97806.68
2017-10-18T04:17:41.548Z,97807.64
2017-10-18T04:23:00.938Z,97798.78
2017-10-18T04:25:29.394Z,97803.95
2017-10-18T04:30:42.805Z,97800.05
2017-10-18T04:33:11.368Z,97798.28
2017-10-18T04:35:39.541Z,97797.87
2017-10-18T04:38:07.559Z,97799.60
2017-10-18T04:40:36.395Z,97791.78
2017-10-18T04:43:26.695Z,97789.66
2017-10-18T04:45:54.577Z,97790.22
2017-10-18T04:48:22.335Z,97786.10
2017-10-18T04:55:56.498Z,97771.95
2017-10-18T04:58:28.535Z,97787.82
2017-10-18T05:00:56.551Z,97783.20
2017-10-18T05:03:25.051Z,97781.80
2017-10-18T05:05:53.908Z,97779.34
2017-10-18T05:08:21.704Z,97779.25
2017-10-18T05:10:49.502Z,97777.95
2017-10-18T05:13:17.217Z,97780.38
2017-10-18T05:15:45.393Z,97780.06
2017-10-18T05:18:13.099Z,97779.91
2017-10-18T05:20:40.749Z,97776.94
2017-10-18T05:23:08.428Z,97781.09
2017-10-18T05:25:36.747Z,97781.25
2017-10-18T05:28:04.501Z,97780.58
2017-10-18T05:30:33.396Z,97783.48
2017-10-18T05:33:01.336Z,97783.47
2017-10-18T05:35:29.563Z,97783.90
2017-10-18T05:37:57.429Z,97783.37
2017-10-18T05:40:25.230Z,97778.69
2017-10-18T05:42:52.857Z,97780.64
2017-10-18T05:45:21.061Z,97777.52
2017-10-18T05:47:48.638Z,97782.45
2017-10-18T05:50:17.000Z,97779.86
2017-10-18T05:52:44.553Z,97777.25
2017-10-18T05:55:12.246Z,97776.97
2017-10-18T05:57:39.830Z,97774.81
2017-10-18T06:00:07.473Z,97777.08
2017-10-18T06:02:35.500Z,97780.80
2017-10-18T06:05:06.158Z,97773.70
2017-10-18T06:10:17.497Z,97778.50
2017-10-18T06:12:45.086Z,97794.27
2017-10-18T06:15:12.708Z,97794.31
2017-10-18T06:17:47.592Z,97798.29
2017-10-18T06:20:15.160Z,97795.42
2017-10-18T06:22:42.740Z,97799.84
2017-10-18T06:25:10.354Z,97803.33
2017-10-18T06:27:41.305Z,97803.05
2017-10-18T06:30:08.870Z,97797.50
2017-10-18T06:32:38.622Z,97810.38
2017-10-18T06:35:06.441Z,97808.47
2017-10-18T06:37:33.913Z,97803.51
2017-10-18T06:40:01.460Z,97799.44
2017-10-18T06:42:28.926Z,97797.05
2017-10-18T06:44:56.444Z,97793.28
2017-10-18T06:47:24.934Z,97789.48
2017-10-18T06:49:52.465Z,97792.90
2017-10-18T06:52:19.998Z,97786.49
2017-10-18T06:54:48.076Z,97779.44
2017-10-18T06:57:15.993Z,97786.73
2017-10-18T06:59:43.473Z,97788.50
2017-10-18T07:02:11.061Z,97786.23
2017-10-18T07:04:39.334Z,97789.07
2017-10-18T07:07:06.880Z,97786.48
2017-10-18T07:09:34.922Z,97784.42
2017-10-18T07:12:03.213Z,97788.29
2017-10-18T07:14:31.230Z,97789.24
2017-10-18T07:16:59.076Z,97791.27
2017-10-18T07:19:26.628Z,97794.27
2017-10-18T07:21:54.213Z,97791.12
2017-10-18T07:24:21.824Z,97794.31
2017-10-18T07:26:49.372Z,97794.19
2017-10-18T07:29:16.979Z,97793.33
2017-10-18T07:31:44.473Z,97791.53
2017-10-18T07:34:12.019Z,97786.91
2017-10-18T07:36:39.544Z,97792.14
2017-10-18T07:39:07.101Z,97790.84
2017-10-18T07:41:34.699Z,97791.59
2017-10-18T07:44:02.255Z,97784.84
2017-10-18T07:46:29.798Z,97777.39
2017-10-18T07:48:57.496Z,97776.37
2017-10-18T07:51:25.116Z,97771.41
2017-10-18T07:53:53.006Z,97776.45
2017-10-18T07:56:20.564Z,97781.02
2017-10-18T07:58:48.102Z,97782.12
2017-10-18T08:01:15.828Z,97777.14
2017-10-18T08:03:44.542Z,97774.97
2017-10-18T08:06:12.071Z,97769.93
2017-10-18T08:08:39.640Z,97774.92
2017-10-18T08:11:07.173Z,97776.32
2017-10-18T08:13:35.082Z,97774.77
2017-10-18T08:16:02.639Z,97777.16
2017-10-18T08:18:30.222Z,97776.88
2017-10-18T08:20:58.302Z,97768.27
2017-10-18T08:23:25.875Z,97765.05
2017-10-18T08:25:53.482Z,97767.71
2017-10-18T08:28:21.032Z,97764.39
2017-10-18T08:30:48.607Z,97763.20
2017-10-18T08:33:16.147Z,97758.02
2017-10-18T08:35:43.697Z,97758.78
2017-10-18T08:38:11.336Z,97756.83
2017-10-18T08:40:39.134Z,97754.15
2017-10-18T08:43:06.859Z,97755.64
2017-10-18T08:45:34.403Z,97756.42
2017-10-18T08:48:02.722Z,97753.34
2017-10-18T08:50:30.324Z,97758.78
2017-10-18T08:52:58.658Z,97754.69
2017-10-18T08:55:26.296Z,97751.45
2017-10-18T08:57:53.971Z,97755.47
2017-10-18T09:00:21.493Z,97756.67
2017-10-18T09:02:49.219Z,97750.45
2017-10-18T09:05:16.872Z,97750.80
2017-10-18T09:07:44.437Z,97753.37
2017-10-18T09:10:12.052Z,97756.85
2017-10-18T09:12:39.662Z,97753.31
2017-10-18T09:15:08.193Z,97746.03
2017-10-18T09:17:35.705Z,97746.39
2017-10-18T09:20:03.364Z,97749.72
2017-10-18T09:22:30.905Z,97749.73
2017-10-18T09:24:58.446Z,97751.19
2017-10-18T09:27:26.042Z,97741.62
2017-10-18T09:29:53.595Z,97739.25
2017-10-18T09:32:21.364Z,97734.50
2017-10-18T09:34:48.896Z,97734.27
2017-10-18T09:37:16.521Z,97732.95
2017-10-18T09:39:44.139Z,97734.92
2017-10-18T09:42:11.775Z,97728.56
2017-10-18T09:44:39.314Z,97728.39
2017-10-18T09:47:06.957Z,97729.79
2017-10-18T09:49:34.461Z,97720.96
2017-10-18T09:52:02.031Z,97718.05
2017-10-18T09:54:29.646Z,97720.27
2017-10-18T09:56:57.200Z,97727.04
2017-10-18T09:59:24.735Z,97727.56
2017-10-18T10:01:52.333Z,97718.84
2017-10-18T10:04:19.876Z,97724.16
2017-10-18T10:06:47.494Z,97723.05
2017-10-18T10:09:15.100Z,97730.55
2017-10-18T10:11:42.628Z,97723.20
2017-10-18T10:14:10.163Z,97722.44
2017-10-18T10:16:37.697Z,97721.30
2017-10-18T10:19:05.236Z,97715.59
2017-10-18T10:21:33.751Z,97708.80
2017-10-18T10:24:02.043Z,97703.50
2017-10-18T10:26:29.536Z,97699.30
2017-10-18T10:28:57.084Z,97703.69
2017-10-18T10:31:24.601Z,97704.38
2017-10-18T10:33:52.144Z,97704.94
2017-10-18T10:36:19.714Z,97700.34
2017-10-18T10:38:47.298Z,97697.74
2017-10-18T10:41:15.213Z,97701.43
2017-10-18T10:43:42.714Z,97702.41
2017-10-18T10:46:10.270Z,97699.34
2017-10-18T10:48:38.459Z,97703.52
2017-10-18T10:51:06.001Z,97694.92
2017-10-18T10:53:33.614Z,97701.69
2017-10-18T10:56:01.256Z,97689.09
2017-10-18T10:58:28.839Z,97689.44
2017-10-18T11:00:56.373Z,97685.36
2017-10-18T11:03:24.966Z,97684.84
2017-10-18T11:05:52.503Z,97677.30
2017-10-18T11:08:20.043Z,97681.56
2017-10-18T11:10:48.273Z,97676.30
2017-10-18T11:13:16.778Z,97672.16
2017-10-18T11:15:44.291Z,97668.42
2017-10-18T11:18:11.829Z,97667.07
2017-10-18T11:20:39.474Z,97672.45
2017-10-18T11:23:07.022Z,97666.35
2017-10-18T11:25:34.579Z,97668.18
2017-10-18T11:28:02.798Z,97667.44
2017-10-18T11:30:30.379Z,97661.72
2017-10-18T11:32:57.902Z,97663.03
2017-10-18T11:35:25.441Z,97657.89
2017-10-18T11:37:52.987Z,97654.80
2017-10-18T11:40:21.164Z,97660.23
2017-10-18T11:42:49.264Z,97651.73
2017-10-18T11:45:16.818Z,97650.38
2017-10-18T11:47:44.313Z,97652.23
2017-10-18T11:50:11.856Z,97642.73
2017-10-18T11:52:39.334Z,97636.95
2017-10-18T11:55:06.865Z,97635.86
2017-10-18T11:57:34.464Z,97629.23
2017-10-18T12:00:01.964Z,97632.35
2017-10-18T12:02:29.537Z,97626.00
2017-10-18T12:04:57.098Z,97621.21
2017-10-18T12:07:24.650Z,97617.71
2017-10-18T12:09:52.897Z,97620.70
2017-10-18T12:12:20.465Z,97616.34
2017-10-18T12:14:48.423Z,97617.72
2017-10-18T12:17:16.880Z,97605.50
2017-10-18T12:19:44.518Z,97608.95
2017-10-18T12:22:12.137Z,97605.12
2017-10-18T12:24:39.743Z,97598.59
2017-10-18T12:27:07.362Z,97592.16
2017-10-18T12:29:34.941Z,97589.22
2017-10-18T12:32:02.720Z,97589.16
2017-10-18T12:34:30.275Z,97585.82
2017-10-18T12:36:57.837Z,97582.19
2017-10-18T12:39:26.174Z,97579.92
2017-10-18T12:41:53.725Z,97579.09
2017-10-18T12:44:21.338Z,97576.56
2017-10-18T12:46:48.932Z,97581.12
2017-10-18T12:49:16.446Z,97580.55
2017-10-18T12:51:43.968Z,97576.29
2017-10-18T12:54:11.499Z,97572.43
2017-10-18T12:56:39.053Z,97578.78
2017-10-18T12:59:06.644Z,97570.30
2017-10-18T13:01:34.209Z,97569.14
2017-10-18T13:04:01.733Z,97565.21
2017-10-18T13:06:30.126Z,97554.45
2017-10-18T13:08:57.620Z,97561.95
2017-10-18T13:11:25.220Z,97551.59
2017-10-18T13:13:52.778Z,97554.80
2017-10-18T13:16:20.333Z,97550.14
2017-10-18T13:18:47.818Z,97549.94
2017-10-18T13:21:15.349Z,97549.80
2017-10-18T13:23:42.864Z,97546.98
2017-10-18T13:26:10.380Z,97547.80
2017-10-18T13:28:37.926Z,97552.19
2017-10-18T13:31:05.477Z,97545.83
2017-10-18T13:33:33.014Z,97541.09
2017-10-18T13:36:01.133Z,97536.88
2017-10-18T13:38:28.652Z,97536.05
2017-10-18T13:40:56.190Z,97531.03
2017-10-18T13:43:27.266Z,97532.34
2017-10-18T13:45:54.901Z,97527.62
2017-10-18T13:48:23.343Z,97523.66
2017-10-18T13:50:50.936Z,97528.38
2017-10-18T13:53:18.510Z,97529.56
2017-10-18T13:55:46.630Z,97524.66
2017-10-18T13:58:16.116Z,97529.25
2017-10-18T14:00:43.642Z,97529.50
2017-10-18T14:03:13.090Z,97523.78
2017-10-18T14:05:40.966Z,97526.86
2017-10-18T14:08:08.572Z,97520.03
2017-10-18T14:10:36.186Z,97522.80
2017-10-18T14:13:03.741Z,97518.80
2017-10-18T14:15:32.305Z,97519.80
2017-10-18T14:17:59.847Z,97511.20
2017-10-18T14:20:28.007Z,97518.88
2017-10-18T14:22:58.627Z,97509.22
2017-10-18T14:25:27.594Z,97517.17
2017-10-18T14:27:55.274Z,97515.75
2017-10-18T14:30:23.244Z,97516.10
2017-10-18T14:32:53.075Z,97516.78
2017-10-18T14:35:20.851Z,97516.97
2017-10-18T14:37:53.612Z,97516.53
2017-10-18T14:40:25.415Z,97515.02
2017-10-18T14:42:54.092Z,97513.44
2017-10-18T14:45:22.622Z,97509.70
2017-10-18T14:47:50.350Z,97508.92
2017-10-18T14:50:18.029Z,97514.23
2017-10-18T14:52:45.607Z,97510.70
2017-10-18T14:55:13.312Z,97507.75
2017-10-18T14:57:41.820Z,97508.75
2017-10-18T15:00:10.552Z,97509.41
2017-10-18T15:02:41.131Z,97516.73
2017-10-18T15:05:08.675Z,97518.94
2017-10-18T15:07:36.478Z,97514.45
2017-10-18T15:10:04.249Z,97518.16
2017-10-18T15:12:32.042Z,97512.63
2017-10-18T15:14:59.579Z,97514.08
2017-10-18T15:17:27.274Z,97512.72
2017-10-18T15:19:54.924Z,97508.05
2017-10-18T15:22:22.480Z,97511.41
2017-10-18T15:24:50.023Z,97511.41
2017-10-18T15:27:17.549Z,97515.45
2017-10-18T15:29:45.007Z,97514.22
2017-10-18T15:32:12.604Z,97515.97
2017-10-18T15:34:40.188Z,97514.77
2017-10-18T15:37:07.724Z,97513.41
2017-10-18T15:39:35.334Z,97519.50
2017-10-18T15:42:03.149Z,97511.59
2017-10-18T15:44:30.813Z,97507.45
2017-10-18T15:46:58.360Z,97511.53
2017-10-18T15:49:25.902Z,97508.66
2017-10-18T15:51:53.429Z,97504.16
2017-10-18T15:57:09.310Z,97511.08
2017-10-18T15:59:36.825Z,97504.77
2017-10-18T16:02:04.489Z,97508.09
2017-10-18T16:04:47.719Z,97514.39
2017-10-18T16:07:15.265Z,97511.57
2017-10-18T16:09:42.895Z,97512.27
2017-10-18T16:12:20.696Z,97512.69
2017-10-18T16:14:50.052Z,97507.46
2017-10-18T16:17:17.845Z,97516.51
2017-10-18T16:19:46.055Z,97513.98
2017-10-18T16:22:14.191Z,97512.38
2017-10-18T16:24:48.524Z,97513.89
2017-10-18T16:27:27.455Z,97516.73
2017-10-18T16:29:58.557Z,97517.14
2017-10-18T16:32:29.241Z,97517.11
2017-10-18T16:35:04.005Z,97519.05
2017-10-18T16:37:31.508Z,97528.78
2017-10-18T16:40:00.146Z,97529.19
2017-10-18T16:42:35.458Z,97527.64
2017-10-18T16:45:03.676Z,97532.67
2017-10-18T16:47:31.311Z,97529.86
2017-10-18T16:49:58.804Z,97532.41
2017-10-18T16:52:26.432Z,97534.70
2017-10-18T16:54:54.029Z,97529.70
2017-10-18T16:57:22.482Z,97537.14
2017-10-18T16:59:50.049Z,97535.64
2017-10-18T17:02:17.731Z,97542.69
2017-10-18T17:04:46.293Z,97542.70
2017-10-18T17:07:14.184Z,97542.23
2017-10-18T17:09:41.911Z,97542.49
2017-10-18T17:12:09.727Z,97542.59
2017-10-18T17:14:39.088Z,97544.08
2017-10-18T17:17:06.754Z,97538.73
2017-10-18T17:19:35.425Z,97542.34
2017-10-18T17:22:03.277Z,97544.41
2017-10-18T17:24:31.352Z,97546.95
2017-10-18T17:26:59.364Z,97544.28
2017-10-18T17:29:26.921Z,97543.70
2017-10-18T17:31:54.851Z,97545.21
2017-10-18T17:34:23.323Z,97549.37
2017-10-18T17:36:51.492Z,97547.69
2017-10-18T17:39:19.287Z,97539.14
2017-10-18T17:41:47.171Z,97558.98
2017-10-18T17:44:15.187Z,97553.48
2017-10-18T17:46:42.809Z,97549.56
2017-10-18T17:49:10.882Z,97560.56
2017-10-18T17:51:38.506Z,97554.41
2017-10-18T17:54:06.167Z,97561.91
2017-10-18T17:56:34.444Z,97560.50
2017-10-18T17:59:02.009Z,97561.52
2017-10-18T18:01:29.677Z,97565.55
2017-10-18T18:03:58.047Z,97567.77
2017-10-18T18:06:25.563Z,97574.06
2017-10-18T18:08:53.348Z,97572.91
2017-10-18T18:11:20.970Z,97569.25
2017-10-18T18:13:48.629Z,97568.48
2017-10-18T18:16:17.196Z,97567.69
2017-10-18T18:18:45.821Z,97577.45
2017-10-18T18:21:13.532Z,97583.16
2017-10-18T18:23:41.313Z,97579.42
2017-10-18T18:26:10.008Z,97582.44
2017-10-18T18:28:37.566Z,97578.96
2017-10-18T18:31:05.278Z,97571.53
2017-10-18T18:33:33.149Z,97568.09
2017-10-18T18:36:01.567Z,97571.41
2017-10-18T18:38:29.373Z,97566.30
2017-10-18T18:40:57.025Z,97579.59
2017-10-18T18:43:25.589Z,97573.59
2017-10-18T18:45:53.123Z,97578.45
2017-10-18T18:48:20.784Z,97578.34
2017-10-18T18:50:48.432Z,97579.06
2017-10-18T18:53:16.076Z,97576.25
2017-10-18T18:55:43.638Z,97577.84
2017-10-18T18:58:11.170Z,97572.89
2017-10-18T19:00:38.699Z,97569.61
2017-10-18T19:03:06.381Z,97570.16
2017-10-18T19:05:34.018Z,97576.48
2017-10-18T19:08:01.563Z,97582.92
2017-10-18T19:10:29.137Z,97586.20
2017-10-18T19:12:56.749Z,97586.48
2017-10-18T19:15:25.354Z,97588.78
2017-10-18T19:17:53.130Z,97596.28
2017-10-18T19:20:21.510Z,97598.61
2017-10-18T19:22:49.365Z,97594.86
2017-10-18T19:25:17.887Z,97594.21
2017-10-18T19:27:46.538Z,97594.05
2017-10-18T19:30:14.289Z,97592.06
2017-10-18T19:32:41.955Z,97597.39
2017-10-18T19:35:09.590Z,97596.62
2017-10-18T19:37:38.126Z,97599.90
2017-10-18T19:40:11.022Z,97593.86
2017-10-18T19:42:38.769Z,97598.55
2017-10-18T19:45:07.432Z,97593.66
2017-10-18T19:47:35.810Z,97597.30
2017-10-18T19:50:03.833Z,97594.95
2017-10-18T19:52:32.051Z,97592.56
2017-10-18T19:54:59.631Z,97598.53
2017-10-18T19:57:27.416Z,97591.37
2017-10-18T19:59:58.254Z,97599.84
2017-10-18T20:02:26.094Z,97603.61
2017-10-18T20:04:54.677Z,97602.91
2017-10-18T20:07:23.622Z,97605.47
2017-10-18T20:09:51.346Z,97608.83
2017-10-18T20:12:20.811Z,97606.85
2017-10-18T20:14:49.127Z,97609.86
2017-10-18T20:17:16.794Z,97608.03
2017-10-18T20:19:44.515Z,97611.88
2017-10-18T20:22:12.666Z,97614.63
2017-10-18T20:24:40.833Z,97617.20
2017-10-18T20:27:09.384Z,97616.96
2017-10-18T20:29:37.623Z,97611.64
2017-10-18T20:32:08.396Z,97605.23
2017-10-18T20:34:36.022Z,97603.42
2017-10-18T20:37:04.743Z,97609.13
2017-10-18T20:39:33.534Z,97608.95
2017-10-18T20:42:02.134Z,97612.34
2017-10-18T20:44:29.866Z,97606.88
2017-10-18T20:46:58.548Z,97609.03
2017-10-18T20:49:27.766Z,97606.88
2017-10-18T20:51:56.940Z,97613.61
2017-10-18T20:54:24.538Z,97612.03
2017-10-18T20:56:52.933Z,97615.59
2017-10-18T20:59:21.868Z,97612.06
2017-10-18T21:01:50.404Z,97621.48
2017-10-18T21:04:18.108Z,97617.83
2017-10-18T21:06:45.798Z,97614.96
2017-10-18T21:09:13.634Z,97618.41
2017-10-18T21:11:41.321Z,97616.29
2017-10-18T21:14:09.313Z,97624.14
2017-10-18T21:16:37.792Z,97621.06
2017-10-18T21:19:05.513Z,97619.02
2017-10-18T21:21:34.049Z,97618.05
2017-10-18T21:24:01.717Z,97618.86
2017-10-18T21:26:31.306Z,97620.70
2017-10-18T21:28:59.846Z,97618.88
2017-10-18T21:31:27.981Z,97621.45
2017-10-18T21:33:55.694Z,97621.61
2017-10-18T21:36:23.391Z,97614.78
2017-10-18T21:38:52.532Z,97613.74
2017-10-18T21:41:20.167Z,97615.05
2017-10-18T21:43:47.770Z,97620.31
2017-10-18T21:46:15.532Z,97616.54
2017-10-18T21:48:43.192Z,97619.12
2017-10-18T21:51:11.433Z,97622.16
2017-10-18T21:53:40.925Z,97619.12
2017-10-18T21:56:08.662Z,97621.05
2017-10-18T21:58:36.982Z,97615.42
2017-10-18T22:01:05.497Z,97617.53
2017-10-18T22:03:33.172Z,97623.50
2017-10-18T22:06:00.947Z,97620.95
2017-10-18T22:08:28.561Z,97615.55
2017-10-18T22:10:57.296Z,97618.66
2017-10-18T22:13:25.037Z,97615.83
2017-10-18T22:15:52.683Z,97612.74
2017-10-18T22:18:20.399Z,97606.08
2017-10-18T22:20:48.017Z,97603.39
2017-10-18T22:23:15.799Z,97606.56
2017-10-18T22:25:43.452Z,97601.02
2017-10-18T22:30:45.582Z,97599.51
2017-10-18T22:33:13.926Z,97611.33
2017-10-18T22:35:43.584Z,97605.24
2017-10-18T22:38:11.257Z,97605.34
2017-10-18T22:40:38.853Z,97600.20
2017-10-18T22:43:06.837Z,97602.48
2017-10-18T22:45:34.528Z,97604.73
2017-10-18T22:48:03.947Z,97601.70
2017-10-18T22:50:32.203Z,97590.84
2017-10-18T22:52:59.882Z,97593.22
2017-10-18T22:55:27.543Z,97596.89
2017-10-18T22:57:55.179Z,97603.38
2017-10-18T23:00:23.866Z,97604.45
2017-10-18T23:02:51.542Z,97600.83
2017-10-18T23:05:19.271Z,97605.22
2017-10-18T23:07:46.987Z,97588.00
2017-10-18T23:10:14.626Z,97598.03
2017-10-18T23:12:42.284Z,97591.47
2017-10-18T23:15:10.632Z,97593.22
2017-10-18T23:17:38.354Z,97600.80
2017-10-18T23:20:06.038Z,97598.45
2017-10-18T23:22:33.805Z,97599.30
2017-10-18T23:25:01.551Z,97603.50
2017-10-18T23:27:30.298Z,97597.41
2017-10-18T23:29:57.859Z,97597.11
2017-10-18T23:32:25.429Z,97606.87
2017-10-18T23:34:52.989Z,97601.75
2017-10-18T23:37:20.627Z,97605.98
2017-10-18T23:39:48.183Z,97601.70
2017-10-18T23:42:15.800Z,97601.84
2017-10-18T23:44:45.656Z,97604.84
2017-10-18T23:47:13.221Z,97603.79
2017-10-18T23:49:40.899Z,97607.99
2017-10-18T23:52:08.531Z,97603.89
2017-10-18T23:54:36.268Z,97605.86
2017-10-18T23:57:03.860Z,97605.45
2017-10-18T23:59:31.671Z,97606.05
